Tiempo atmosférico en la estación meteorológica de Bunyola, Sierra de Alfabia, Illes Balears (1030 m.)



Fecha
DESCASC
Temp. máxima en grados centígrados (hora)
DESCASC
Temp. mínima en grados centígrados (hora)
DESCASC
Temp. media en grados centígrados
DESCASC
Racha de viento máxima en m/sg (hora)
DESCASC
Velocidad máxima media en intervalos de 10 minutos(hora)
DESCASC
Precipitaciones diarias en mm
DESCASC
Precipitaciones de 00:00 a 06:00 en mm
DESCASC
Precipitaciones de 06:00 a 12:00 en mm
DESCASC
Precipitaciones de 12:00 a 18:00 en mm
DESCASC
Precipitaciones de 18:00 a 24:00 en mm
DESCASC

Gráficas

Temp. máximas Temp. mínimas Temp. medias Precipitaciones Rachas de viento máximas Velocidades máximas media en intervalos de 10 minutos

Datos horarios

Fecha y hora oficial Temperatura (ºC) Velocidad del viento (km/h) Dirección del viento Racha (km/h) Dirección de racha Precipitación (mm) Presión (hPa) Tendencia (hPa) Humedad (%)
2019-06-24 23:00:00 26.7 30 Sudeste 43 Sudeste 0 -- -- 23
2019-06-24 22:00:00 27.5 32 Sur 42 Sudeste 0 -- -- 24
2019-06-24 21:00:00 25.6 34 Sudeste 40 Sudeste 0 -- -- 31
2019-06-24 20:00:00 27.3 27 Sur 37 Sudeste 0 -- -- 30
2019-06-24 19:00:00 25.6 22 Sudeste 30 Sur 0 -- -- 49
2019-06-24 18:00:00 26.8 20 Sur 31 Sudeste 0 -- -- 44
2019-06-24 17:00:00 27.7 16 Sur 28 Sur 0 -- -- 43
2019-06-24 16:00:00 27.1 18 Sur 27 Sur 0 -- -- 42
2019-06-24 15:00:00 27.4 16 Sur 27 Sur 0 -- -- 42
2019-06-24 14:00:00 25.9 16 Sudeste 30 Sudeste 0 -- -- 45
2019-06-24 13:00:00 24.5 21 Sudeste 42 Sudeste 0 -- -- 44
2019-06-24 12:00:00 23.2 29 Sudeste 48 Sudeste 0 -- -- 43
2019-06-24 11:00:00 23.5 33 Sudeste 56 Sudeste 0 -- -- 37
2019-06-24 10:00:00 21.8 38 Sudeste 66 Sudeste 0 -- -- 33
2019-06-24 09:00:00 21.1 42 Sudeste 62 Sudeste 0 -- -- 25
2019-06-24 08:00:00 21.3 40 Sudeste 69 Sudeste 0 -- -- 20
2019-06-24 07:00:00 20.5 43 Sudeste 63 Sudeste 0 -- -- 20
2019-06-24 06:00:00 20.1 45 Sudeste 60 Sudeste 0 -- -- 20
2019-06-24 05:00:00 21.3 34 Sudeste 50 Sudeste 0 -- -- 19
2019-06-24 04:00:00 20 35 Sudeste 54 Sudeste 0 -- -- 24
2019-06-24 03:00:00 19.9 39 Sudeste 51 Sudeste 0 -- -- 24
2019-06-24 02:00:00 19.1 32 Sudeste 48 Sudeste 0 -- -- 25
2019-06-24 01:00:00 19 35 Sudeste 46 Sudeste 0 -- -- 26
2019-06-24 00:00:00 21.2 40 Sudeste 54 Sudeste 0 -- -- 23
2019-06-23 23:00:00 19.3 40 Sudeste 48 Sudeste 0 -- -- 37
2019-06-23 22:00:00 19.3 33 Este 40 Sudeste 0 -- -- 38
2019-06-23 21:00:00 19.8 30 Este 36 Sudeste 0 -- -- 45
2019-06-23 20:00:00 21.8 21 Este 30 Sudeste 0 -- -- 38
2019-06-23 19:00:00 22.7 18 Sudeste 28 Este 0 -- -- 40
2019-06-23 18:00:00 23.9 18 Sudeste 28 Este 0 -- -- 39
2019-06-23 17:00:00 25.5 10 Sudeste 26 Sudeste 0 -- -- 36
2019-06-23 16:00:00 26.4 10 Sur 28 Sudeste 0 -- -- 37
2019-06-23 15:00:00 25.4 10 Sur 31 Sudeste 0 -- -- 36
2019-06-23 14:00:00 26 16 Sur 30 Sudeste 0 -- -- 28
2019-06-23 13:00:00 25.6 10 Sudeste 24 Sudeste 0 -- -- 27
2019-06-23 12:00:00 24.3 9 Sur 27 Sur 0 -- -- 31
2019-06-23 11:00:00 23.6 15 Sudeste 23 Sur 0 -- -- 35
2019-06-23 10:00:00 22.2 15 Sudeste 22 Sudeste 0 -- -- 35
2019-06-23 09:00:00 21.6 18 Sudeste 25 Sudeste 0 -- -- 27
2019-06-23 08:00:00 20.1 21 Sudeste 25 Sudeste 0 -- -- 30
2019-06-23 07:00:00 19.1 18 Sudeste 25 Sudeste 0 -- -- 31
2019-06-23 06:00:00 18.2 22 Sudeste 30 Sudeste 0 -- -- 40
2019-06-23 05:00:00 17.8 22 Sudeste 27 Sudeste 0 -- -- 43
2019-06-23 04:00:00 16.6 19 Sudeste 23 Sudeste 0 -- -- 52
2019-06-23 03:00:00 16.6 19 Sudeste 22 Sudeste 0 -- -- 53
2019-06-23 02:00:00 19.3 17 Sudeste 19 Sudeste 0 -- -- 33
2019-06-23 01:00:00 18.5 15 Sudeste 18 Sudeste 0 -- -- 38
2019-06-23 00:00:00 19.2 13 Este 18 Sudeste 0 -- -- 38
2019-06-22 23:00:00 19.8 14 Este 19 Este 0 -- -- 34
2019-06-22 22:00:00 20.1 9 Este 14 Este 0 -- -- 38
2019-06-22 21:00:00 20.6 6 Este 13 Sudeste 0 -- -- 37
2019-06-22 20:00:00 19.5 9 Sudeste 15 Sudeste 0 -- -- 56
2019-06-22 19:00:00 21.1 6 Sudeste 16 Sur 0 -- -- 50
2019-06-22 18:00:00 20.4 11 Sur 18 Sur 0 -- -- 52
2019-06-22 17:00:00 20.5 5 Sur 17 Sur 0 -- -- 48
2019-06-22 16:00:00 20 4 Sudeste 19 Sudeste 0 -- -- 49
2019-06-22 15:00:00 21.3 5 Este 17 Sudeste 0 -- -- 47
2019-06-22 14:00:00 21.3 7 Sur 19 Sudeste 0 -- -- 46
2019-06-22 13:00:00 22 6 Sur 18 Sudeste 0 -- -- 45
2019-06-22 12:00:00 21.2 3 Nordeste 16 Este 0 -- -- 46
2019-06-22 11:00:00 20.8 2 Sur 13 Este 0 -- -- 46
2019-06-22 10:00:00 19.9 4 Noroeste 13 Noroeste 0 -- -- 48
2019-06-22 09:00:00 19.3 8 Noroeste 16 Norte 0 -- -- 44
2019-06-22 08:00:00 18.9 10 Norte 28 Norte 0 -- -- 38
2019-06-22 07:00:00 18.5 17 Norte 25 Norte 0 -- -- 35
2019-06-22 06:00:00 17.4 14 Norte 19 Norte 0 -- -- 38
2019-06-22 05:00:00 17.2 10 Nordeste 17 Nordeste 0 -- -- 40
2019-06-22 04:00:00 16.5 14 Norte 18 Nordeste 0 -- -- 46
2019-06-22 03:00:00 16.2 12 Nordeste 17 Nordeste 0 -- -- 46
2019-06-22 02:00:00 16.4 5 Nordeste 16 Nordeste 0 -- -- 43
2019-06-22 01:00:00 17.2 12 Nordeste 17 Nordeste 0 -- -- 39
2019-06-22 00:00:00 17.7 10 Nordeste 22 Nordeste 0 -- -- 47
2019-06-21 23:00:00 17.3 15 Nordeste 28 Norte 0 -- -- 50
2019-06-21 22:00:00 16.5 24 Norte 29 Norte 0 -- -- 71
2019-06-21 21:00:00 15.7 16 Norte 22 Norte 0 -- -- 89
2019-06-21 20:00:00 16.9 7 Norte 15 Sur 0 -- -- 87
2019-06-21 19:00:00 19.1 8 Sudeste 22 Sudeste 0 -- -- 78
2019-06-21 18:00:00 20 13 Sur 23 Sur 0 -- -- 71
2019-06-21 17:00:00 20.7 13 Sur 27 Sudeste 0 -- -- 69
2019-06-21 16:00:00 20.4 5 Sur 23 Sur 0 -- -- 67
2019-06-21 15:00:00 20.5 13 Sur 24 Sur 0 -- -- 63
2019-06-21 14:00:00 21.6 12 Sur 26 Sur 0 -- -- 54
2019-06-21 13:00:00 20.5 10 Sur 24 Sur 0 -- -- 55
2019-06-21 12:00:00 19.5 8 Sur 32 Sudeste 0 -- -- 59
2019-06-21 11:00:00 16.2 8 Este 44 Sudeste 0 -- -- 71
2019-06-21 10:00:00 17 23 Sudeste 53 Sudeste 0 -- -- 60
2019-06-21 09:00:00 16.9 15 Sudeste 33 Sudeste 0 -- -- 70
2019-06-21 08:00:00 17.6 21 Sudeste 26 Sudeste 0 -- -- 69
2019-06-21 07:00:00 18 13 Sudeste 26 Sur 0 -- -- 55
2019-06-21 06:00:00 18 23 Sudeste 27 Sudeste 0 -- -- 46
2019-06-21 05:00:00 18.6 7 Este 14 Este 0 -- -- 41
2019-06-21 04:00:00 18.7 9 Este 15 Sudeste 0 -- -- 42
2019-06-21 03:00:00 17.9 5 Sur 17 Sudeste 0 -- -- 42
2019-06-21 02:00:00 18 14 Sur 22 Sur 0 -- -- 48
2019-06-21 01:00:00 18.3 15 Sur 19 Sur 0 -- -- 51
2019-06-21 00:00:00 17.9 14 Sur 20 Sudeste 0 -- -- 69
2019-06-20 23:00:00 18.6 13 Sur 15 Sudeste 0 -- -- 71
2019-06-20 22:00:00 20.5 5 Sur 13 Sudeste 0 -- -- 37
2019-06-20 21:00:00 19.3 12 Sudeste 23 Sur 0 -- -- 70
2019-06-20 20:00:00 19.6 17 Sur 23 Sudeste 0 -- -- 70
2019-06-20 19:00:00 20.6 15 Sur 22 Sur 0 -- -- 66
2019-06-20 18:00:00 22 13 Sur 30 Sur 0 -- -- 64
2019-06-20 17:00:00 21.8 21 Sur 30 Sur 0 -- -- 63
2019-06-20 16:00:00 21.8 15 Sur 29 Sur 0 -- -- 67
2019-06-20 15:00:00 21.5 14 Sur 30 Sudeste 0 -- -- 69
2019-06-20 14:00:00 20.5 16 Sur 26 Sur 0 -- -- 67
2019-06-20 13:00:00 23.1 13 Sur 30 Sur 0 -- -- 48
2019-06-20 12:00:00 22.8 18 Sudeste 31 Sur 0 -- -- 49
2019-06-20 11:00:00 21.6 20 Sur 27 Sur 0 -- -- 42
2019-06-20 10:00:00 24.5 11 Sudeste 14 Sudeste 0 -- -- 27
2019-06-20 09:00:00 23.5 6 Norte 11 Norte 0 -- -- 26
2019-06-20 08:00:00 23.6 2 Norte 7 Oeste 0 -- -- 27
2019-06-20 07:00:00 21.6 4 Oeste 9 Oeste 0 -- -- 27
2019-06-20 06:00:00 21.2 6 Sudoeste 15 Sur 0 -- -- 26
2019-06-20 05:00:00 21.1 14 Sur 17 Sur 0 -- -- 26
2019-06-20 04:00:00 20.9 0 Calma 9 Sur 0 -- -- 26
2019-06-20 03:00:00 21 9 Sur 26 Sur 0 -- -- 26
2019-06-20 02:00:00 21.2 6 Sur 8 Sur 0 -- -- 26
2019-06-20 01:00:00 21 3 Sur 6 Sur 0 -- -- 25
2019-06-20 00:00:00 21.2 5 Sur 9 Sur 0 -- -- 26
2019-06-19 23:00:00 19.8 9 Sur 12 Sur 0 -- -- 28
2019-06-19 22:00:00 20.7 6 Sudoeste 15 Sur 0 -- -- 27
2019-06-19 21:00:00 20.3 11 Sur 18 Sudoeste 0 -- -- 27
2019-06-19 20:00:00 21.1 13 Sur 18 Sur 0 -- -- 28
2019-06-19 19:00:00 21.9 14 Sur 21 Sur 0 -- -- 42
2019-06-19 18:00:00 22.1 13 Sur 20 Sudeste 0 -- -- 41
2019-06-19 17:00:00 21.8 10 Sur 25 Sur 0 -- -- 54
2019-06-19 16:00:00 21.5 14 Sur 24 Sur 0 -- -- 55
2019-06-19 15:00:00 21.5 18 Sur 27 Sur 0 -- -- 56
2019-06-19 14:00:00 21.3 14 Sur 26 Sur 0 -- -- 56
2019-06-19 13:00:00 20.8 17 Sur 28 Sur 0 -- -- 61
2019-06-19 12:00:00 20.8 21 Sur 29 Sur 0 -- -- 52
2019-06-19 11:00:00 20.8 15 Sur 22 Sudoeste 0 -- -- 40
2019-06-19 10:00:00 22.6 8 Sudoeste 26 Sudoeste 0 -- -- 36
2019-06-19 09:00:00 20.7 18 Sudoeste 32 Sudoeste 0 -- -- 40
2019-06-19 08:00:00 19.2 22 Sur 33 Sur 0 -- -- 29
2019-06-19 07:00:00 16.5 23 Sur 34 Sur 0 -- -- 39
2019-06-19 06:00:00 16.7 24 Sur 33 Sur 0 -- -- 36
2019-06-19 05:00:00 17.1 22 Sur 31 Sur 0 -- -- 35
2019-06-19 04:00:00 16.9 23 Sur 32 Sur 0 -- -- 36
2019-06-19 03:00:00 17.2 23 Sur 29 Sur 0 -- -- 33
2019-06-19 02:00:00 19.6 22 Sur 29 Sur 0 -- -- 23
2019-06-19 01:00:00 17.7 25 Sur 34 Sur 0 -- -- 29
2019-06-19 00:00:00 17.8 28 Sur 39 Sur 0 -- -- 30
2019-06-18 23:00:00 18 30 Sur 41 Sur 0 -- -- 31
2019-06-18 22:00:00 17.9 31 Sur 40 Sur 0 -- -- 32
2019-06-18 21:00:00 16.7 31 Sur 38 Sur 0 -- -- 44
2019-06-18 20:00:00 17.6 29 Sur 37 Sur 0 -- -- 41
2019-06-18 19:00:00 19.5 26 Sur 36 Sur 0 -- -- 38
2019-06-18 18:00:00 20.3 26 Sur 39 Sur 0 -- -- 37
2019-06-18 17:00:00 21.1 25 Sur 36 Sur 0 -- -- 36
2019-06-18 16:00:00 20.8 23 Sur 36 Sur 0 -- -- 36
2019-06-18 15:00:00 21.7 22 Sur 33 Sur 0 -- -- 36
2019-06-18 14:00:00 22.4 21 Sur 36 Sur 0.1 -- -- 36
2019-06-18 13:00:00 22 19 Sur 35 Sur -- -- -- 36
2019-06-18 12:00:00 21.2 23 Sur 35 Sur 0 -- -- 37
2019-06-18 11:00:00 20.1 24 Sur 33 Sur 0 -- -- 40
2019-06-18 10:00:00 18.8 23 Sur 32 Sur 0 -- -- 43
2019-06-18 09:00:00 18.2 23 Sur 30 Sur 0 -- -- 44
2019-06-18 08:00:00 17.6 22 Sur 28 Sur 0 -- -- 44
2019-06-18 07:00:00 16.4 24 Sur 27 Sur 0 -- -- 48
2019-06-18 06:00:00 16.3 22 Sur 26 Sur 0 -- -- 50
2019-06-18 05:00:00 16.2 21 Sur 26 Sur 0 -- -- 50
2019-06-18 04:00:00 17 19 Sur 28 Sur 0 -- -- 44
2019-06-18 03:00:00 17.6 22 Sur 29 Sur 0 -- -- 40
2019-06-18 02:00:00 17.9 22 Sur 27 Sur 0 -- -- 38
2019-06-18 01:00:00 17.7 22 Sur 25 Sur 0 -- -- 40
2019-06-18 00:00:00 18.4 18 Sur 24 Sur 0 -- -- 36
2019-06-17 23:00:00 18.9 17 Sur 23 Sur 0 -- -- 35
2019-06-17 22:00:00 16.7 18 Sudeste 22 Sur 0 -- -- 51
2019-06-17 21:00:00 16.5 18 Sur 23 Sur 0 -- -- 50
2019-06-17 20:00:00 17.2 13 Sur 18 Sur 0 -- -- 48
2019-06-17 19:00:00 19.4 8 Sur 16 Sur 0 -- -- 43
2019-06-17 18:00:00 20 9 Sur 18 Sudoeste 0 -- -- 41
2019-06-17 17:00:00 20.7 8 Sur 18 Sudoeste 0 -- -- 41
2019-06-17 16:00:00 21 8 Sur 20 Sur 0 -- -- 44
2019-06-17 15:00:00 22.2 8 Sudoeste 22 Sudoeste 0 -- -- 41
2019-06-17 14:00:00 22.1 6 Sudoeste 37 Oeste 0 -- -- 41
2019-06-17 13:00:00 22.1 3 Sudoeste 30 Sur 0 -- -- 39
2019-06-17 12:00:00 22.3 0 Calma 16 Sudoeste 0 -- -- 36
2019-06-17 11:00:00 21.5 5 Norte 15 Nordeste 0 -- -- 35
2019-06-17 10:00:00 20.4 8 Nordeste 23 Norte 0 -- -- 32
2019-06-17 09:00:00 18.2 18 Norte 28 Norte 0 -- -- 36
2019-06-17 08:00:00 17.2 25 Norte 30 Norte 0 -- -- 38
2019-06-17 07:00:00 16 20 Norte 23 Noroeste 0 -- -- 53
2019-06-17 06:00:00 15.5 8 Norte 10 Norte 0 -- -- 54
2019-06-17 05:00:00 15.8 5 Este 10 Sudeste 0 -- -- 49
2019-06-17 04:00:00 15.8 6 Nordeste 16 Norte 0 -- -- 45
2019-06-17 03:00:00 17.4 12 Norte 15 Norte 0 -- -- 33
2019-06-17 02:00:00 17.3 13 Nordeste 17 Nordeste 0 -- -- 34
2019-06-17 01:00:00 17.1 14 Nordeste 22 Norte 0 -- -- 37
2019-06-17 00:00:00 15.4 19 Norte 21 Norte 0 -- -- 63
2019-06-16 23:00:00 17.1 8 Nordeste 15 Nordeste 0 -- -- 42
2019-06-16 22:00:00 17 10 Nordeste 21 Nordeste 0 -- -- 47
2019-06-16 21:00:00 16.9 9 Nordeste 16 Nordeste 0 -- -- 60
2019-06-16 20:00:00 17.1 6 Nordeste 18 Sudeste 0 -- -- 57
2019-06-16 19:00:00 16.9 14 Sur 19 Sudeste 0 -- -- 64
2019-06-16 18:00:00 19.5 6 Sudeste 24 Sur 0 -- -- 49
2019-06-16 17:00:00 19.7 6 Sur 26 Sudeste 0 -- -- 50
2019-06-16 16:00:00 20 6 Sudeste 22 Sudeste 0 -- -- 46
2019-06-16 15:00:00 21.5 4 Sudoeste 17 Sudoeste 0 -- -- 44
2019-06-16 14:00:00 21 4 Norte 13 Nordeste 0 -- -- 47
2019-06-16 13:00:00 20.6 5 Sur 16 Sur 0 -- -- 45
2019-06-16 12:00:00 21.5 0 Calma 14 Sudeste 0 -- -- 42
2019-06-16 11:00:00 20 4 Noroeste 11 Noroeste 0 -- -- 42
2019-06-16 10:00:00 19.1 5 Noroeste 16 Norte 0 -- -- 40
2019-06-16 09:00:00 18.1 10 Nordeste 14 Nordeste 0 -- -- 39
2019-06-16 08:00:00 16 9 Norte 11 Este 0 -- -- 40
2019-06-16 07:00:00 15.4 6 Nordeste 11 Norte 0 -- -- 39
2019-06-16 06:00:00 15.5 6 Nordeste 9 Norte 0 -- -- 37
2019-06-16 05:00:00 15.7 8 Norte 15 Norte 0 -- -- 36
2019-06-16 04:00:00 16.5 13 Noroeste 17 Norte 0 -- -- 35
2019-06-16 03:00:00 16.3 10 Norte 18 Norte 0 -- -- 35
2019-06-16 02:00:00 16.5 16 Norte 46 Norte 0 -- -- 36
2019-06-16 01:00:00 15.9 7 Noroeste 9 Noroeste 0 -- -- 41
2019-06-16 00:00:00 16.2 2 Sudeste 10 Norte 0 -- -- 45
2019-06-15 23:00:00 16.5 7 Norte 9 Norte 0 -- -- 46
2019-06-15 22:00:00 16.6 6 Noroeste 12 Norte 0 -- -- 51
2019-06-15 21:00:00 17.9 5 Noroeste 9 Sudeste 0 -- -- 53
2019-06-15 20:00:00 20 3 Sudoeste 13 Sudoeste 0 -- -- 52
2019-06-15 19:00:00 21.9 5 Noroeste 16 Noroeste 0 -- -- 38
2019-06-15 18:00:00 22.8 11 Noroeste 23 Oeste 0 -- -- 40
2019-06-15 17:00:00 23.5 6 Noroeste 17 Noroeste 0 -- -- 40
2019-06-15 16:00:00 23.9 4 Oeste 14 Noroeste 0 -- -- 40
2019-06-15 15:00:00 22.3 8 Sur 16 Sudoeste 0 -- -- 49
2019-06-15 14:00:00 22.3 5 Nordeste 15 Noroeste 0 -- -- 48
2019-06-15 13:00:00 21.8 4 Este 14 Norte 0 -- -- 52
2019-06-15 12:00:00 20.6 8 Noroeste 20 Noroeste 0 -- -- 50
2019-06-15 11:00:00 20 9 Noroeste 20 Oeste 0 -- -- 52
2019-06-15 10:00:00 17.9 7 Noroeste -- -- -- -- -- 53
2019-06-15 09:00:00 18.6 4 Norte 16 Noroeste 0 -- -- 47
2019-06-15 08:00:00 18.2 6 Noroeste 21 Oeste 0 -- -- 47
2019-06-15 07:00:00 17.8 11 Oeste 24 Sudoeste 0 -- -- 35
2019-06-15 06:00:00 14.9 18 Sudoeste 25 Sudoeste 0 -- -- 60
2019-06-15 05:00:00 19.6 11 Sudoeste 28 Sudoeste 0 -- -- 12
2019-06-15 04:00:00 19.2 22 Sudoeste 32 Sudoeste 0 -- -- --
2019-06-15 03:00:00 18.2 23 Sur 35 Sudoeste 0 -- -- 12
2019-06-15 02:00:00 17.6 23 Sur 36 Sudoeste 0 -- -- 19
2019-06-15 01:00:00 17.2 26 Sur 44 Sudoeste 0 -- -- 26
2019-06-15 00:00:00 16 32 Sur 44 Sudoeste 0 -- -- 36
2019-06-14 23:00:00 16.3 28 Sur 38 Sudoeste 0 -- -- 58
2019-06-14 22:00:00 16.2 27 Sur 37 Sur 0 -- -- 58
2019-06-14 21:00:00 16.4 27 Sur 36 Sudoeste 0 -- -- 58
2019-06-14 20:00:00 16.2 19 Sur 28 Sudoeste 0 -- -- 59
2019-06-14 19:00:00 18 12 Sudoeste 32 Oeste 0 -- -- 46
2019-06-14 18:00:00 18.8 15 Noroeste 32 Noroeste 0 -- -- 49
2019-06-14 17:00:00 16.5 6 Oeste 34 Noroeste 0 -- -- 88
2019-06-14 16:00:00 14.3 20 Noroeste 48 Norte 0 -- -- 90
2019-06-14 15:00:00 13.5 32 Norte 68 Nordeste 0 -- -- 91
2019-06-14 14:00:00 13.4 37 Noroeste 62 Noroeste 0 -- -- 91
2019-06-14 13:00:00 13.8 45 Noroeste 73 Noroeste 0 -- -- 91
2019-06-14 12:00:00 14.2 52 Noroeste 84 Noroeste 0.1 -- -- 91
2019-06-14 11:00:00 14.2 37 Noroeste 59 Noroeste 0 -- -- 91
2019-06-14 10:00:00 14.8 25 Noroeste 52 Noroeste 0 -- -- 91
2019-06-14 09:00:00 15.5 38 Noroeste 56 Noroeste 0 -- -- 73
2019-06-14 08:00:00 15.6 37 Noroeste 55 Noroeste 0 -- -- 81
2019-06-14 07:00:00 16 20 Oeste 31 Noroeste 0 -- -- 84
2019-06-14 06:00:00 19.8 15 Sudoeste 26 Sudoeste 0 -- -- 53
2019-06-14 05:00:00 17.8 21 Sudeste 43 Sur 0 -- -- 66
2019-06-14 04:00:00 18.1 29 Sur 49 Sur 0 -- -- 64
2019-06-14 03:00:00 19.8 29 Sur 66 Sur 0 -- -- 53
2019-06-14 02:00:00 22.3 32 Sudeste 53 Sudeste 0 -- -- 38
2019-06-14 01:00:00 20.3 27 Sudeste 48 Sudeste 0 -- -- 48
2019-06-14 00:00:00 18.3 30 Sudeste 45 Sudeste 0 -- -- 57
2019-06-13 23:00:00 18.1 30 Sudeste 46 Sudeste 0 -- -- 57
2019-06-13 22:00:00 17.4 34 Sudeste 48 Sudeste 0 -- -- 56
2019-06-13 21:00:00 18.9 18 Este 43 Sudeste 0 -- -- 47
2019-06-13 20:00:00 19 28 Sudeste 42 Sudeste 0 -- -- 49
2019-06-13 19:00:00 17.6 28 Sudeste 37 Este 0 -- -- 57
2019-06-13 18:00:00 17.6 29 Sudeste 45 Este 0 -- -- 54
2019-06-13 17:00:00 17.6 32 Sudeste 45 Sudeste 0 -- -- 44
2019-06-13 16:00:00 18.1 33 Este 49 Este 0 -- -- 40
2019-06-13 15:00:00 18.3 33 Sudeste 44 Sudeste 0 -- -- 38
2019-06-13 14:00:00 18.6 29 Sudeste 42 Sudeste 0 -- -- 42
2019-06-13 13:00:00 18.5 21 Este 41 Sudeste 0 -- -- 42
2019-06-13 12:00:00 17 27 Sudeste 38 Este 0 -- -- 45
2019-06-13 11:00:00 16.7 25 Sudeste 42 Este 0 -- -- 40
2019-06-13 10:00:00 15 31 Sudeste 44 Sudeste 0 -- -- 42
2019-06-13 09:00:00 13.7 35 Sudeste 56 Sudeste 0 -- -- 41
2019-06-13 08:00:00 12.6 34 Sudeste 49 Sudeste 0 -- -- 56
2019-06-13 07:00:00 11.6 32 Sudeste 41 Sudeste 0 -- -- 64
2019-06-13 06:00:00 11.7 24 Sudeste 30 Sudeste 0 -- -- 63
2019-06-13 05:00:00 11.7 22 Sudeste 27 Sudeste 0 -- -- 67
2019-06-13 04:00:00 11.7 18 Sudeste 21 Sudeste 0 -- -- 63
2019-06-13 03:00:00 11.9 12 Sudeste 15 Este 0 -- -- 63
2019-06-13 02:00:00 12 9 Este 19 Este 0 -- -- 63
2019-06-13 01:00:00 10.8 16 Este 26 Sudeste 0 -- -- 72
2019-06-13 00:00:00 10.4 17 Sudeste 24 Este 0 -- -- 79
2019-06-12 23:00:00 10.2 20 Este 30 Sudeste 0 -- -- 89
2019-06-12 22:00:00 11.1 20 Sudeste 27 Sudeste 0 -- -- 87
2019-06-12 21:00:00 11.7 19 Sudeste 24 Sudeste 0 -- -- 80
2019-06-12 20:00:00 13.4 11 Sur 21 Sur 0 -- -- 68
2019-06-12 19:00:00 13.6 12 Sur 20 Sudeste 0 -- -- 66
2019-06-12 18:00:00 14.5 8 Sur 21 Sudeste 0 -- -- 61
2019-06-12 17:00:00 14.3 12 Sur 26 Sudeste 0 -- -- 63
2019-06-12 16:00:00 14 15 Sudeste 24 Sudeste 0 -- -- 65
2019-06-12 15:00:00 14.3 11 Sur 22 Sur 0 -- -- 63
2019-06-12 14:00:00 14.5 10 Sur 19 Sudeste 0 -- -- 60
2019-06-12 13:00:00 14.1 3 Sudeste 17 Sudeste 0 -- -- 62
2019-06-12 12:00:00 13.7 4 Sur 18 Sur 0 -- -- 64
2019-06-12 11:00:00 11.3 5 Sur 12 Sur 0 -- -- 78
2019-06-12 10:00:00 10.6 6 Sur 13 Sur 0 -- -- 83
2019-06-12 09:00:00 10.5 4 Sur 9 Sur 0 -- -- 76
2019-06-12 08:00:00 11.1 4 Nordeste 9 Norte 0 -- -- 57
2019-06-12 07:00:00 9.5 0 Calma 8 Norte 0 -- -- 61
2019-06-12 06:00:00 9.2 7 Norte 19 Norte 0 -- -- 56
2019-06-12 05:00:00 9.3 15 Norte 24 Norte 0 -- -- 51
2019-06-12 04:00:00 9 17 Norte 36 Norte 0 -- -- 59
2019-06-12 03:00:00 7.6 23 Norte 29 Norte 0 -- -- 90
2019-06-12 02:00:00 8.9 13 Noroeste 19 Norte 0.4 -- -- 90
2019-06-12 01:00:00 9.1 17 Noroeste 27 Noroeste 0.1 -- -- 90
2019-06-12 00:00:00 9.5 7 Norte 22 Noroeste 0 -- -- 90
2019-06-11 23:00:00 9.7 12 Norte 43 Norte 0.1 -- -- 90
2019-06-11 22:00:00 10.3 34 Noroeste 57 Noroeste 0.6 -- -- 90
2019-06-11 21:00:00 11.4 28 Noroeste 41 Noroeste 0.2 -- -- 90
2019-06-11 20:00:00 12 23 Noroeste 33 Noroeste 0.5 -- -- 90
2019-06-11 19:00:00 13 17 Noroeste 23 Noroeste 0 -- -- 90
2019-06-11 18:00:00 13.7 12 Norte 22 Noroeste 0 -- -- 89
2019-06-11 17:00:00 14.7 11 Noroeste 17 Noroeste 0 -- -- 80
2019-06-11 16:00:00 15.3 3 Sudoeste 34 Sudoeste 0 -- -- 69
2019-06-11 15:00:00 14.8 17 Sur 50 Sur 0 -- -- 75
2019-06-11 14:00:00 14.2 27 Sur 41 Sur 0 -- -- 79
2019-06-11 13:00:00 14.2 20 Sur 37 Sur 0 -- -- 81
2019-06-11 12:00:00 13.6 18 Sur 31 Sur 0 -- -- 77
2019-06-11 11:00:00 13.3 17 Sur 29 Sur 0 -- -- 80
2019-06-11 10:00:00 13.3 18 Sur 29 Sur 0 -- -- 80
2019-06-11 09:00:00 13 24 Sudeste 33 Sur 0 -- -- 84
2019-06-11 08:00:00 12.6 28 Sur 37 Sudeste 0 -- -- 79
2019-06-11 07:00:00 11.9 27 Sudeste 32 Sudeste 0 -- -- 88
2019-06-11 06:00:00 12.1 18 Sur 21 Sur 0 -- -- 87
2019-06-11 05:00:00 12.6 10 Sur 14 Sur 0 -- -- 86
2019-06-11 04:00:00 12.7 4 Oeste 8 Noroeste 0 -- -- 90
2019-06-11 03:00:00 11.4 7 Sur 13 Sur 0 -- -- 90
2019-06-11 02:00:00 11.8 11 Sur 21 Sudeste 0 -- -- 90
2019-06-11 01:00:00 12.5 16 Sur 23 Sur 0 -- -- 90
2019-06-11 00:00:00 12.6 17 Sur 30 Sur 0 -- -- 90
2019-06-10 23:00:00 13.5 22 Sur 34 Sur 0 -- -- 90
2019-06-10 22:00:00 13.9 21 Sur 28 Sur 0 -- -- 90
2019-06-10 21:00:00 14 20 Sur 26 Sur 0 -- -- 90
2019-06-10 20:00:00 14.5 12 Sur 27 Sur 0 -- -- 90
2019-06-10 19:00:00 15.6 14 Sur 23 Sur 0 -- -- 85
2019-06-10 18:00:00 16.9 12 Sur 23 Sudoeste 0 -- -- 76
2019-06-10 17:00:00 18.2 10 Sur 22 Sudoeste 0 -- -- 71
2019-06-10 16:00:00 17.6 10 Sur 20 Sur 0 -- -- 74
2019-06-10 15:00:00 17 8 Norte 21 Sudeste 0 -- -- 74
2019-06-10 14:00:00 16.7 4 Nordeste 24 Norte 0 -- -- 75
2019-06-10 13:00:00 17 5 Nordeste 26 Sudoeste 0 -- -- 71
2019-06-10 12:00:00 16.8 6 Nordeste 26 Noroeste 0 -- -- 73
2019-06-10 11:00:00 14.2 20 Noroeste 30 Noroeste 0 -- -- 80
2019-06-10 10:00:00 15.1 17 Noroeste 31 Noroeste 0 -- -- 75
2019-06-10 09:00:00 16.9 3 Norte 12 Este 0 -- -- 66
2019-06-10 08:00:00 16.7 3 Este 17 Norte 0 -- -- 62
2019-06-10 07:00:00 15.3 11 Norte 19 Norte 0 -- -- 62
2019-06-10 06:00:00 14.6 12 Nordeste 18 Norte 0 -- -- 66
2019-06-10 05:00:00 15.3 11 Nordeste 26 Norte 0 -- -- 64
2019-06-10 04:00:00 16.3 20 Norte 32 Norte 0 -- -- 58
2019-06-10 03:00:00 16.5 32 Norte 43 Noroeste 0 -- -- 58
2019-06-10 02:00:00 16.9 34 Noroeste 39 Norte 0 -- -- 54
2019-06-10 01:00:00 17.4 22 Noroeste 40 Noroeste 0 -- -- 50
2019-06-10 00:00:00 17.6 28 Noroeste 37 Noroeste 0 -- -- 53
2019-06-09 23:00:00 19.4 9 Noroeste 16 Noroeste 0 -- -- 51
2019-06-09 22:00:00 19.8 8 Norte 12 Nordeste 0 -- -- 51
2019-06-09 21:00:00 20.6 5 Noroeste 17 Sudeste 0 -- -- 50
2019-06-09 20:00:00 19.8 15 Sudeste 39 Sudeste 0 -- -- 58
2019-06-09 19:00:00 21.8 10 Sudeste 21 Sudeste 0 -- -- 54
2019-06-09 18:00:00 22.1 14 Sudeste 23 Sudeste 0 -- -- 50
2019-06-09 17:00:00 23.1 11 Sudeste 19 Sudeste 0 -- -- 49
2019-06-09 16:00:00 22.2 10 Sur 22 Este 0 -- -- 49
2019-06-09 15:00:00 22.7 3 Nordeste 23 Noroeste 0 -- -- 48
2019-06-09 14:00:00 18.3 12 Norte 26 Noroeste 0 -- -- 54
2019-06-09 13:00:00 18.1 15 Norte 24 Norte 0 -- -- 61
2019-06-09 12:00:00 21.9 4 Sur 19 Sur 0 -- -- 54
2019-06-09 11:00:00 20.3 6 Sudoeste 18 Sur 0 -- -- 55
2019-06-09 10:00:00 21.4 12 Sur 25 Sur 0 -- -- 52
2019-06-09 09:00:00 19.4 11 Sur 38 Sur 0 -- -- 62
2019-06-09 08:00:00 17.4 34 Sudeste 44 Sur 0 -- -- 67
2019-06-09 07:00:00 16.4 28 Sur 37 Sur 0 -- -- 62
2019-06-09 06:00:00 18 21 Sur 40 Sur 0 -- -- 51
2019-06-09 05:00:00 18.3 26 Sur 55 Sur 0 -- -- 45
2019-06-09 04:00:00 19.8 36 Sur 69 Sur 0 -- -- 40
2019-06-09 03:00:00 20 45 Sudeste 64 Sudeste 0 -- -- 39
2019-06-09 02:00:00 17.9 43 Sudeste 61 Sudeste 0 -- -- 34
2019-06-09 01:00:00 17.4 41 Sudeste 60 Sudeste 0 -- -- 36
2019-06-09 00:00:00 16.1 46 Sudeste 59 Sudeste 0 -- -- 40
2019-06-08 23:00:00 15.1 46 Sudeste 58 Sudeste 0 -- -- 43
2019-06-08 22:00:00 15.6 30 Sudeste 45 Sudeste 0 -- -- 37
2019-06-08 21:00:00 15.6 36 Sudeste 48 Este 0 -- -- 41
2019-06-08 20:00:00 16.2 36 Sudeste 53 Este 0 -- -- 36
2019-06-08 19:00:00 16.9 34 Este 45 Sudeste 0 -- -- 35
2019-06-08 18:00:00 17.5 32 Este 45 Sudeste 0 -- -- 34
2019-06-08 17:00:00 18 30 Sudeste 39 Sudeste 0 -- -- 36
2019-06-08 16:00:00 17.6 29 Sudeste 39 Este 0 -- -- 38
2019-06-08 15:00:00 17.8 28 Sudeste 41 Sudeste 0 -- -- 42
2019-06-08 14:00:00 17.2 26 Este 51 Sudeste 0 -- -- 46
2019-06-08 13:00:00 15.9 40 Este 57 Sudeste 0 -- -- 46
2019-06-08 12:00:00 15.3 42 Sudeste 58 Este 0 -- -- 45
2019-06-08 11:00:00 15.4 37 Sudeste 47 Sudeste 0 -- -- 49
2019-06-08 10:00:00 14.3 35 Sudeste 50 Sudeste 0 -- -- 55
2019-06-08 09:00:00 12.4 33 Sudeste 45 Este 0 -- -- 62
2019-06-08 08:00:00 13.7 23 Este 31 Sudeste 0 -- -- 59
2019-06-08 07:00:00 15.6 14 Este 28 Este 0 -- -- 51
2019-06-08 06:00:00 15.5 14 Este 22 Sudeste 0 -- -- 56
2019-06-08 05:00:00 15.1 17 Este 35 Sudeste 0 -- -- 58
2019-06-08 04:00:00 13.9 27 Sudeste 34 Sudeste 0 -- -- 70
2019-06-08 03:00:00 13.1 17 Este 31 Este 0 -- -- 80
2019-06-08 02:00:00 14.6 13 Sudeste 22 Sudeste 0 -- -- 74
2019-06-08 01:00:00 15.1 10 Este 18 Este 0 -- -- 75
2019-06-08 00:00:00 14.7 11 Este 20 Sudeste 0 -- -- 79
2019-06-07 23:00:00 14.8 14 Sudeste 21 Sudeste 0 -- -- 74
2019-06-07 22:00:00 16 14 Sudeste 18 Sudeste 0 -- -- 67
2019-06-07 21:00:00 17 9 Sur 14 Sur 0 -- -- 44
2019-06-07 20:00:00 19.7 0 Calma 13 Noroeste 0 -- -- 38
2019-06-07 19:00:00 19.2 8 Norte 14 Noroeste 0 -- -- 44
2019-06-07 18:00:00 20.6 5 Sudoeste 17 Sudoeste 0 -- -- 41
2019-06-07 17:00:00 20.3 5 Norte 16 Noroeste 0 -- -- 45
2019-06-07 16:00:00 19.6 10 Norte 28 Noroeste 0 -- -- 44
2019-06-07 15:00:00 20.6 15 Noroeste 30 Noroeste 0 -- -- 37
2019-06-07 14:00:00 20.9 18 Noroeste 31 Noroeste 0 -- -- 38
2019-06-07 13:00:00 20.3 11 Noroeste 25 Noroeste 0 -- -- 41
2019-06-07 12:00:00 19.8 11 Noroeste 25 Noroeste 0 -- -- 42
2019-06-07 11:00:00 18.8 9 Oeste 32 Oeste 0 -- -- 47
2019-06-07 10:00:00 17.8 18 Sudoeste 33 Sudoeste 0 -- -- 40
2019-06-07 09:00:00 17.7 11 Oeste 35 Oeste 0 -- -- 31
2019-06-07 08:00:00 16 18 Sudoeste 29 Sudoeste 0 -- -- 37
2019-06-07 07:00:00 14.3 18 Sur 28 Sudoeste 0 -- -- 52
2019-06-07 06:00:00 14.3 19 Sur 32 Sur 0 -- -- 50
2019-06-07 05:00:00 13.8 23 Sur 48 Sur 0 -- -- 52
2019-06-07 04:00:00 13.3 35 Sur 51 Sur 0 -- -- 49
2019-06-07 03:00:00 13.1 40 Sur 53 Sur 0 -- -- 54
2019-06-07 02:00:00 12.9 39 Sur 55 Sur 0 -- -- 61
2019-06-07 01:00:00 13.1 44 Sur 59 Sur 0 -- -- 59
2019-06-07 00:00:00 13.1 45 Sur 59 Sur 0 -- -- 58
2019-06-06 23:00:00 13.5 50 Sur 61 Sur 0 -- -- 55
2019-06-06 22:00:00 13.3 43 Sur 56 Sur 0 -- -- 72
2019-06-06 21:00:00 14 41 Sur 52 Sur 0 -- -- 73
2019-06-06 20:00:00 15.3 23 Sur 44 Sur 0 -- -- 59
2019-06-06 19:00:00 16.3 22 Sur 46 Sur 0 -- -- 62
2019-06-06 18:00:00 16.6 19 Sur 38 Sur 0 -- -- 65
2019-06-06 17:00:00 17.6 16 Sur 34 Sudoeste 0 -- -- 49
2019-06-06 16:00:00 18.5 17 Sur 34 Sudoeste 0 -- -- 48
2019-06-06 15:00:00 19 14 Sur 29 Sudoeste 0 -- -- 50
2019-06-06 14:00:00 18.5 14 Sur 28 Sur 0 -- -- 52
2019-06-06 13:00:00 18.5 9 Sur 24 Sur 0 -- -- 44
2019-06-06 12:00:00 18.7 12 Sudeste 22 Sur 0 -- -- 42
2019-06-06 11:00:00 16.6 11 Sur 21 Sur 0 -- -- 57
2019-06-06 10:00:00 16.3 10 Sudeste 16 Sudeste 0 -- -- 50
2019-06-06 09:00:00 16.7 4 Este 12 Norte 0 -- -- 40
2019-06-06 08:00:00 14.6 10 Norte 15 Norte 0 -- -- 31
2019-06-06 07:00:00 13.2 5 Noroeste 12 Noroeste 0 -- -- 35
2019-06-06 06:00:00 12.6 8 Oeste 18 Noroeste 0 -- -- 38
2019-06-06 05:00:00 12.7 14 Noroeste 21 Noroeste 0 -- -- 38
2019-06-06 04:00:00 12.6 6 Noroeste 22 Norte 0 -- -- 38
2019-06-06 03:00:00 11.5 19 Norte 36 Norte 0 -- -- 56
2019-06-06 02:00:00 11.7 26 Noroeste 34 Noroeste 0 -- -- 54
2019-06-06 01:00:00 11.8 22 Noroeste 35 Noroeste 0 -- -- 54
2019-06-06 00:00:00 11.5 30 Noroeste 42 Norte 0 -- -- 56
2019-06-05 23:00:00 11.4 31 Noroeste 51 Noroeste 0 -- -- 57
2019-06-05 22:00:00 11.6 35 Noroeste 49 Noroeste 0 -- -- 62
2019-06-05 21:00:00 12 40 Noroeste 54 Noroeste 0 -- -- 73
2019-06-05 20:00:00 13.9 40 Noroeste 55 Noroeste 0 -- -- 79
2019-06-05 19:00:00 15.5 32 Noroeste 58 Noroeste 0 -- -- 58
2019-06-05 18:00:00 15.4 31 Noroeste 61 Noroeste 0 -- -- 36
2019-06-05 17:00:00 17.6 24 Oeste 67 Oeste 0 -- -- 27
2019-06-05 16:00:00 18.7 28 Oeste 60 Oeste 0 -- -- 20
2019-06-05 15:00:00 20.3 19 Oeste 48 Oeste 0 -- -- 36
2019-06-05 14:00:00 20.6 15 Oeste 45 Oeste 0 -- -- 42
2019-06-05 13:00:00 19 14 Oeste 36 Oeste 0 -- -- 55
2019-06-05 12:00:00 16.7 10 Sudoeste 39 Sudoeste 0 -- -- 68
2019-06-05 11:00:00 14.5 28 Sur 46 Sur 0 -- -- 80
2019-06-05 10:00:00 17.7 31 Sur 45 Sur 0 -- -- 29
2019-06-05 09:00:00 17.9 23 Sur 40 Sur 0 -- -- 26
2019-06-05 08:00:00 15.5 26 Sur 36 Sur 0 -- -- 38
2019-06-05 07:00:00 16.4 26 Sur 36 Sur 0 -- -- 40
2019-06-05 06:00:00 16.5 27 Sur 37 Sur 0 -- -- 31
2019-06-05 05:00:00 16.6 27 Sur 39 Sudeste 0 -- -- 24
2019-06-05 04:00:00 17.3 30 Sur 41 Sur 0 -- -- 30
2019-06-05 03:00:00 17.2 30 Sur 41 Sur 0 -- -- 27
2019-06-05 02:00:00 17 30 Sur 40 Sur 0 -- -- 25
2019-06-05 01:00:00 16.9 27 Sur 37 Sur 0 -- -- 24
2019-06-05 00:00:00 17.3 31 Sur 44 Sur 0 -- -- 21
2019-06-04 23:00:00 17.4 33 Sur 39 Sudeste 0 -- -- 20
2019-06-04 22:00:00 17.5 32 Sur 40 Sur 0 -- -- 23
2019-06-04 21:00:00 16.6 31 Sudeste 35 Sudeste 0 -- -- 47
2019-06-04 20:00:00 17.6 27 Sur 35 Sudeste 0 -- -- 44
2019-06-04 19:00:00 18.5 27 Sur 40 Sur 0 -- -- 44
2019-06-04 18:00:00 19.7 28 Sur 37 Sur 0 -- -- 40
2019-06-04 17:00:00 21.3 23 Sur 35 Sur 0 -- -- 37
2019-06-04 16:00:00 22.1 23 Sur 37 Sur 0 -- -- 36
2019-06-04 15:00:00 21.5 22 Sur 35 Sudeste 0 -- -- 37
2019-06-04 14:00:00 21.8 25 Sur 37 Sur 0 -- -- 38
2019-06-04 13:00:00 20.8 26 Sur 38 Sur 0 -- -- 39
2019-06-04 12:00:00 20.2 27 Sur 39 Sudeste 0 -- -- 38
2019-06-04 11:00:00 19.1 27 Sur 39 Sur 0 -- -- 37
2019-06-04 10:00:00 17.7 31 Sur 37 Sudeste 0 -- -- 38
2019-06-04 09:00:00 17.2 31 Sur 37 Sur 0 -- -- 38
2019-06-04 08:00:00 15.9 32 Sur 37 Sur 0 -- -- 40
2019-06-04 07:00:00 14.9 30 Sur 34 Sur 0 -- -- 43
2019-06-04 06:00:00 14.4 28 Sur 34 Sur 0 -- -- 43
2019-06-04 05:00:00 13.9 29 Sur 35 Sur 0 -- -- 41
2019-06-04 04:00:00 15.1 28 Sur 34 Sur 0 -- -- 31
2019-06-04 03:00:00 15.4 29 Sur 34 Sur 0 -- -- 29
2019-06-04 02:00:00 15.7 28 Sur 37 Sur 0 -- -- 31
2019-06-04 01:00:00 15.8 32 Sur 36 Sur 0 -- -- 33
2019-06-04 00:00:00 15.4 29 Sur 32 Sur 0 -- -- 35
2019-06-03 23:00:00 15.4 29 Sur 32 Sur 0 -- -- 35
2019-06-03 22:00:00 15.1 27 Sur 31 Sur 0 -- -- 38
2019-06-03 21:00:00 15.1 28 Sur 33 Sur 0 -- -- 42
2019-06-03 20:00:00 15.9 27 Sur 35 Sur 0 -- -- 41
2019-06-03 19:00:00 17.3 26 Sur 36 Sur 0 -- -- 39
2019-06-03 18:00:00 18.5 24 Sur 42 Sur 0 -- -- 38
2019-06-03 17:00:00 18.5 25 Sur 39 Sur 0 -- -- 39
2019-06-03 16:00:00 19.5 22 Sur 33 Sur 0 -- -- 37
2019-06-03 15:00:00 20.4 17 Sur 34 Sur 0 -- -- 34
2019-06-03 14:00:00 21.1 17 Sur 31 Sur 0 -- -- 34
2019-06-03 13:00:00 21.8 10 Sur 27 Sudeste 0 -- -- 32
2019-06-03 12:00:00 21.3 12 Sur 25 Sur 0 -- -- 33
2019-06-03 11:00:00 19.7 14 Sur 27 Sur 0 -- -- 35
2019-06-03 10:00:00 19.4 14 Sur 23 Sur 0 -- -- 33
2019-06-03 09:00:00 19 12 Sudeste 26 Sur 0 -- -- 32
2019-06-03 08:00:00 16.6 22 Sudeste 24 Sudeste 0 -- -- 35
2019-06-03 07:00:00 15.2 23 Sur 26 Sur 0 -- -- 38
2019-06-03 06:00:00 15.1 23 Sur 27 Sur 0 -- -- 37
2019-06-03 05:00:00 15.1 20 Sur 24 Sur 0 -- -- 36
2019-06-03 04:00:00 15.4 19 Sur 23 Sur 0 -- -- 35
2019-06-03 03:00:00 15.6 20 Sur 24 Sur 0 -- -- 34
2019-06-03 02:00:00 15.8 22 Sur 25 Sur 0 -- -- 33
2019-06-03 01:00:00 15.7 22 Sur 27 Sur 0 -- -- 35
2019-06-03 00:00:00 15.7 23 Sur 26 Sur 0 -- -- 34
2019-06-02 23:00:00 15.2 22 Sur 25 Sur 0 -- -- 36
2019-06-02 22:00:00 15.2 21 Sur 24 Sur 0 -- -- 37
2019-06-02 21:00:00 15.1 21 Sur 26 Sur 0 -- -- 44
2019-06-02 20:00:00 15.7 21 Sur 31 Sur 0 -- -- 42
2019-06-02 19:00:00 17.5 22 Sur 31 Sur 0 -- -- 38
2019-06-02 18:00:00 19.2 13 Sur 23 Sur 0 -- -- 36
2019-06-02 17:00:00 20.1 12 Sur 22 Sudoeste 0 -- -- 38
2019-06-02 16:00:00 20.6 11 Sur 21 Sudoeste 0 -- -- 42
2019-06-02 15:00:00 20.3 9 Sudoeste 23 Sudoeste 0 -- -- 41
2019-06-02 14:00:00 20.4 12 Sudoeste 24 Sudoeste 0 -- -- 37
2019-06-02 13:00:00 19.6 11 Sur 20 Sudoeste 0 -- -- 35
2019-06-02 12:00:00 19.7 9 Sur 17 Sur 0 -- -- 36
2019-06-02 11:00:00 18.5 9 Sur 20 Sur 0 -- -- 37
2019-06-02 10:00:00 17.4 13 Sur 26 Sur 0 -- -- 35
2019-06-02 09:00:00 16.2 21 Sudeste 25 Sudeste 0 -- -- 35
2019-06-02 08:00:00 15.4 17 Sudeste 20 Sudeste 0 -- -- 38
2019-06-02 07:00:00 13.7 17 Sur 20 Sudeste 0 -- -- 38
2019-06-02 06:00:00 13.7 10 Sur 15 Sur 0 -- -- 38
2019-06-02 05:00:00 14.6 8 Sur 10 Sur 0 -- -- 35
2019-06-02 04:00:00 14.8 6 Sudeste 9 Sudeste 0 -- -- 38
2019-06-02 03:00:00 14.8 6 Sudeste 13 Sudeste 0 -- -- 41
2019-06-02 02:00:00 15 12 Sudeste 17 Sudeste 0 -- -- 43
2019-06-02 01:00:00 14 17 Sudeste 21 Sudeste 0 -- -- 45
2019-06-02 00:00:00 14 19 Sudeste 22 Sur 0 -- -- 49
2019-06-01 23:00:00 14.2 21 Sur 23 Sur 0 -- -- 38
2019-06-01 22:00:00 14.3 20 Sur 24 Sur 0 -- -- 36
2019-06-01 21:00:00 14.5 21 Sur 26 Sur 0 -- -- 40
2019-06-01 20:00:00 14.9 10 Sur 18 Sudoeste 0 -- -- 47
2019-06-01 19:00:00 17 7 Sur 18 Sudoeste 0 -- -- 44
2019-06-01 18:00:00 18.1 9 Sudoeste 22 Sudoeste 0 -- -- 46
2019-06-01 17:00:00 18.6 7 Sudoeste 32 Sudoeste 0 -- -- 47
2019-06-01 16:00:00 19.2 2 Nordeste 24 Nordeste 0 -- -- 47
2019-06-01 15:00:00 19.9 8 Este 23 Sudeste 0 -- -- 45
2019-06-01 14:00:00 18.2 6 Norte 21 Sur 0 -- -- 49
2019-06-01 13:00:00 17.1 6 Norte 18 Nordeste 0 -- -- 53
2019-06-01 12:00:00 17.7 4 Norte 19 Sudeste 0 -- -- 48
2019-06-01 11:00:00 17.6 3 Sudoeste 16 Sudeste 0 -- -- 46
2019-06-01 10:00:00 17.1 7 Sudeste 19 Sudeste 0 -- -- 45
2019-06-01 09:00:00 16.2 10 Este 15 Sudeste 0 -- -- 49
2019-06-01 08:00:00 15 10 Sudeste 15 Este 0 -- -- 53
2019-06-01 07:00:00 13.2 10 Este 14 Este 0 -- -- 57
2019-06-01 06:00:00 12.7 7 Este 10 Este 0 -- -- 58
2019-06-01 05:00:00 13.1 3 Nordeste 10 Nordeste 0 -- -- 60
2019-06-01 04:00:00 13.1 7 Norte 9 Nordeste 0 -- -- 62
2019-06-01 03:00:00 13.2 5 Norte 10 Norte 0 -- -- 62
2019-06-01 02:00:00 13.2 8 Norte 15 Noroeste 0 -- -- 63
2019-06-01 01:00:00 13.3 12 Noroeste 14 Noroeste 0 -- -- 66
2019-06-01 00:00:00 13.1 9 Noroeste 10 Noroeste 0 -- -- 69
2019-05-31 23:00:00 13 3 Este 10 Este 0 -- -- 68
2019-05-31 22:00:00 13 9 Sudeste 14 Sudeste 0 -- -- 62
2019-05-31 21:00:00 13.8 6 Sudeste 10 Sudeste 0 -- -- 56
2019-05-31 20:00:00 15.5 0 Calma 10 Sudoeste 0 -- -- 49
2019-05-31 19:00:00 17.5 4 Sudoeste 17 Sur 0 -- -- 45
2019-05-31 18:00:00 17.3 4 Norte 20 Sur 0 -- -- 46
2019-05-31 17:00:00 17.9 3 Nordeste 16 Nordeste 0 -- -- 45
2019-05-31 16:00:00 17 4 Nordeste 25 Sur 0 -- -- 45
2019-05-31 15:00:00 17.1 4 Nordeste 14 Sudeste 0 -- -- 45
2019-05-31 14:00:00 15.6 6 Norte 19 Norte 0 -- -- 49
2019-05-31 13:00:00 17 8 Noroeste 18 Noroeste 0 -- -- 42
2019-05-31 12:00:00 16.1 10 Norte 18 Noroeste 0 -- -- 42
2019-05-31 11:00:00 15.3 7 Norte 16 Nordeste 0 -- -- 44
2019-05-31 10:00:00 14.8 8 Norte 15 Nordeste 0 -- -- 44
2019-05-31 09:00:00 13.4 10 Norte 19 Norte 0 -- -- 45
2019-05-31 08:00:00 12 13 Norte 19 Nordeste 0 -- -- 49
2019-05-31 07:00:00 10.4 14 Norte 20 Norte 0 -- -- 52
2019-05-31 06:00:00 10.4 12 Norte 15 Nordeste 0 -- -- 51
2019-05-31 05:00:00 10.5 13 Nordeste 20 Nordeste 0 -- -- 52
2019-05-31 04:00:00 10.7 15 Nordeste 23 Nordeste 0 -- -- 51
2019-05-31 03:00:00 10.9 13 Norte 27 Nordeste 0 -- -- 50
2019-05-31 02:00:00 11.3 12 Nordeste 23 Nordeste 0 -- -- 48
2019-05-31 01:00:00 11.2 12 Nordeste 25 Nordeste 0 -- -- 47
2019-05-31 00:00:00 11.2 12 Nordeste 16 Nordeste 0 -- -- 48
2019-05-30 23:00:00 11.3 12 Norte 14 Norte 0 -- -- 47
2019-05-30 22:00:00 11.6 4 Nordeste 14 Este 0 -- -- 47
2019-05-30 21:00:00 12.3 3 Nordeste 11 Este 0 -- -- 49
2019-05-30 20:00:00 13.1 6 Nordeste 19 Sur 0 -- -- 48
2019-05-30 19:00:00 14.3 10 Norte 22 Norte 0 -- -- 42
2019-05-30 18:00:00 14.9 12 Norte 28 Norte 0 -- -- 40
2019-05-30 17:00:00 14.3 19 Norte 37 Noroeste 0 -- -- 39
2019-05-30 16:00:00 13.8 26 Noroeste 40 Noroeste 0 -- -- 41
2019-05-30 15:00:00 14 26 Noroeste 36 Noroeste 0 -- -- 47
2019-05-30 14:00:00 13.1 25 Noroeste 41 Norte 0 -- -- 54
2019-05-30 13:00:00 13.6 26 Noroeste 38 Noroeste 0 -- -- 62
2019-05-30 12:00:00 12.3 20 Noroeste 30 Noroeste 0 -- -- 73
2019-05-30 11:00:00 11.5 14 Noroeste 23 Noroeste 0 -- -- 83
2019-05-30 10:00:00 10.9 13 Noroeste 22 Noroeste 0 -- -- 82
2019-05-30 09:00:00 10.8 13 Noroeste 20 Noroeste 0 -- -- 80
2019-05-30 08:00:00 10.8 7 Noroeste 10 Noroeste 0 -- -- 67
2019-05-30 07:00:00 9 5 Nordeste 11 Sudeste 0 -- -- 62
2019-05-30 06:00:00 8.9 9 Sudeste 12 Sudeste 0 -- -- 51
2019-05-30 05:00:00 9.1 10 Sudeste 17 Sudeste 0 -- -- 50
2019-05-30 04:00:00 9.3 10 Este 13 Sudeste 0 -- -- 48
2019-05-30 03:00:00 9.4 10 Este 13 Este 0 -- -- 49
2019-05-30 02:00:00 9.3 4 Nordeste 12 Nordeste 0 -- -- 54
2019-05-30 01:00:00 9.9 14 Nordeste 24 Este 0 -- -- 46
2019-05-30 00:00:00 8.2 12 Sudeste 17 Sudeste 0 -- -- 79
2019-05-29 23:00:00 8.3 6 Sudeste 13 Sudeste 0 -- -- 85
2019-05-29 22:00:00 8.2 12 Sur 16 Sur 0 -- -- 89
2019-05-29 21:00:00 9.2 13 Sur 19 Sur 0 -- -- 88
2019-05-29 20:00:00 10.4 11 Sur 17 Sudoeste 0 -- -- 84
2019-05-29 19:00:00 11.5 11 Sur 21 Sur 0 -- -- 85
2019-05-29 18:00:00 10.8 2 Sudoeste 15 Sudoeste 0 -- -- 89
2019-05-29 17:00:00 10.6 3 Nordeste 17 Este 0.5 -- -- 89
2019-05-29 16:00:00 10.7 3 Sudoeste 31 Sudoeste 0 -- -- 85
2019-05-29 15:00:00 12 11 Sur 28 Sudoeste 0 -- -- 73
2019-05-29 14:00:00 12.1 11 Sudoeste 23 Sudoeste 0 -- -- 69
2019-05-29 13:00:00 12.5 7 Sudoeste 28 Sudoeste 0 -- -- 67
2019-05-29 12:00:00 12.9 3 Sudoeste 26 Sudeste 0 -- -- 67
2019-05-29 11:00:00 11.5 6 Sur 13 Sur 0 -- -- 72
2019-05-29 10:00:00 12.1 9 Sur 17 Sur 0 -- -- 64
2019-05-29 09:00:00 10.9 9 Sudeste 18 Sur 0 -- -- 75
2019-05-29 08:00:00 10.1 11 Sudeste 14 Sudeste 0 -- -- 65
2019-05-29 07:00:00 8.6 5 Noroeste 13 Oeste 0 -- -- 61
2019-05-29 06:00:00 8 9 Norte 17 Noroeste 0 -- -- 72
2019-05-29 05:00:00 8 10 Noroeste 26 Oeste 0 -- -- 76
2019-05-29 04:00:00 8.7 15 Noroeste 22 Noroeste 0 -- -- 74
2019-05-29 03:00:00 9.3 8 Sudoeste 25 Oeste 0 -- -- 76
2019-05-29 02:00:00 9.9 8 Sudoeste 19 Oeste 0 -- -- 73
2019-05-29 01:00:00 10.1 7 Oeste 15 Noroeste 0 -- -- 70
2019-05-29 00:00:00 11.2 7 Noroeste 18 Norte 0 -- -- 61
2019-05-28 23:00:00 10.2 0 Calma 22 Norte 0 -- -- 76
2019-05-28 22:00:00 10 5 Noroeste 17 Este 0 -- -- 86
2019-05-28 21:00:00 11.2 8 Este 15 Norte 0 -- -- 82
2019-05-28 20:00:00 13.1 13 Noroeste 19 Norte 0 -- -- 49
2019-05-28 19:00:00 13.7 16 Noroeste 28 Norte 0 -- -- 49
2019-05-28 18:00:00 14.6 11 Norte 19 Este 0 -- -- 59
2019-05-28 17:00:00 17 5 Noroeste 17 Oeste 0 -- -- 45
2019-05-28 16:00:00 16.2 9 Noroeste 22 Oeste 0 -- -- 42
2019-05-28 15:00:00 17 12 Noroeste 25 Noroeste 0 -- -- 40
2019-05-28 14:00:00 17.1 12 Noroeste 19 Oeste 0 -- -- 48
2019-05-28 13:00:00 16 7 Oeste 18 Noroeste 0 -- -- 36
2019-05-28 12:00:00 16.3 9 Noroeste 15 Noroeste 0 -- -- 44
2019-05-28 11:00:00 15.4 3 Oeste 17 Norte 0 -- -- 56
2019-05-28 10:00:00 14 8 Noroeste 17 Noroeste 0 -- -- 63
2019-05-28 09:00:00 12.2 14 Noroeste 27 Noroeste 0 -- -- 84
2019-05-28 08:00:00 11.8 20 Noroeste 25 Nordeste 0 -- -- 67
2019-05-28 07:00:00 12.2 18 Noroeste 27 Noroeste 0 -- -- 63
2019-05-28 06:00:00 11.9 19 Noroeste 25 Noroeste 0 -- -- 58
2019-05-28 05:00:00 12 13 Noroeste 21 Noroeste 0 -- -- 55
2019-05-28 04:00:00 12.1 14 Noroeste 30 Noroeste 0 -- -- 56
2019-05-28 03:00:00 11.7 22 Noroeste 39 Noroeste 0 -- -- 61
2019-05-28 02:00:00 12.2 22 Noroeste 34 Noroeste 0 -- -- 57
2019-05-28 01:00:00 12.6 15 Noroeste 24 Noroeste 0 -- -- 58
2019-05-28 00:00:00 12.7 12 Sudoeste 19 Sudoeste 0 -- -- 59
2019-05-27 23:00:00 12.6 10 Sur 16 Sur 0 -- -- 55
2019-05-27 22:00:00 12.4 9 Sur 16 Sur 0 -- -- 64
2019-05-27 21:00:00 13.2 11 Sur 16 Sur 0 -- -- 61
2019-05-27 20:00:00 15.4 4 Noroeste 18 Oeste 0 -- -- 49
2019-05-27 19:00:00 17.4 5 Sudoeste 23 Noroeste 0 -- -- 40
2019-05-27 18:00:00 17.7 11 Noroeste 22 Noroeste 0 -- -- 44
2019-05-27 17:00:00 17.6 15 Noroeste 30 Norte 0 -- -- 46
2019-05-27 16:00:00 17.2 16 Noroeste 33 Noroeste 0 -- -- 42
2019-05-27 15:00:00 17.3 13 Noroeste 25 Noroeste 0 -- -- 42
2019-05-27 14:00:00 16.1 10 Norte 23 Noroeste 0 -- -- 45
2019-05-27 13:00:00 17.1 9 Noroeste 18 Noroeste 0 -- -- 46
2019-05-27 12:00:00 16.3 10 Noroeste 19 Noroeste 0 -- -- 47
2019-05-27 11:00:00 15 12 Noroeste 21 Noroeste 0 -- -- 49
2019-05-27 10:00:00 14.8 14 Noroeste 26 Noroeste 0 -- -- 51
2019-05-27 09:00:00 13.1 18 Noroeste 28 Noroeste 0 -- -- 55
2019-05-27 08:00:00 12.1 17 Noroeste 30 Norte 0 -- -- 58
2019-05-27 07:00:00 10 21 Noroeste 41 Noroeste 0 -- -- 63
2019-05-27 06:00:00 9.1 23 Noroeste 38 Noroeste 0 -- -- 66
2019-05-27 05:00:00 9.2 21 Noroeste 38 Noroeste 0 -- -- 66
2019-05-27 04:00:00 8.9 24 Noroeste 38 Noroeste 0 -- -- 72
2019-05-27 03:00:00 9.3 26 Noroeste 39 Noroeste 0 -- -- 68
2019-05-27 02:00:00 10.6 15 Noroeste 31 Noroeste 0 -- -- 55
2019-05-27 01:00:00 11.1 17 Noroeste 28 Noroeste 0 -- -- 53
2019-05-27 00:00:00 11.5 22 Noroeste 28 Noroeste 0 -- -- 52
2019-05-26 23:00:00 11.4 21 Noroeste 26 Norte 0 -- -- 53
2019-05-26 22:00:00 11.6 15 Norte 30 Norte 0 -- -- 52
2019-05-26 21:00:00 11.3 12 Norte 29 Norte 0 -- -- 55
2019-05-26 20:00:00 11.8 19 Norte 39 Norte 0 -- -- 55
2019-05-26 19:00:00 12.1 32 Noroeste 44 Norte 0 -- -- 58
2019-05-26 18:00:00 12.6 22 Noroeste 37 Norte 0 -- -- 62
2019-05-26 17:00:00 13.5 16 Noroeste 30 Noroeste 0 -- -- 58
2019-05-26 16:00:00 15 21 Noroeste 30 Noroeste 0 -- -- 55
2019-05-26 15:00:00 12.5 21 Noroeste 32 Noroeste 0 -- -- 75
2019-05-26 14:00:00 12 23 Noroeste 31 Norte 0 -- -- 84
2019-05-26 13:00:00 14 17 Noroeste 26 Norte 0 -- -- 71
2019-05-26 12:00:00 12.8 17 Norte 26 Norte 0 -- -- 77
2019-05-26 11:00:00 12.5 16 Noroeste 32 Norte 0 -- -- 88
2019-05-26 10:00:00 10.4 17 Norte 33 Norte 0 -- -- 90
2019-05-26 09:00:00 9.6 23 Noroeste 47 Noroeste 0 -- -- 90
2019-05-26 08:00:00 9.4 41 Noroeste 55 Noroeste 0 -- -- 90
2019-05-26 07:00:00 9.5 40 Noroeste 55 Noroeste 0 -- -- 90
2019-05-26 06:00:00 9.5 39 Noroeste 53 Noroeste 0 -- -- 90
2019-05-26 05:00:00 8.7 35 Noroeste 51 Noroeste 0 -- -- 89
2019-05-26 04:00:00 8.8 28 Noroeste 42 Noroeste 0 -- -- 90
2019-05-26 03:00:00 9.1 29 Norte 46 Noroeste 0 -- -- 89
2019-05-26 02:00:00 9.6 36 Noroeste 46 Noroeste 0 -- -- 80
2019-05-26 01:00:00 10.9 26 Norte 63 Nordeste 0 -- -- 64
2019-05-26 00:00:00 10.7 35 Norte 50 Nordeste 0 -- -- 68